Station: Kempsey Airport  

  Atmospheric Gas Attenuation - ITU Rec 676-11   ----------------- dB/100km -----------------
Date Time Temp RH % AH g/m3 Dew Point Wind Direction Speed kph Gust kph Barometer mB Rainfall Since 9am 24GHz 47GHz 76GHz 122GHz 134GHz 241GHz
08/05 12:30 19.8 31 5.29 2.2 7 13 1016.5 0 12.4 19.7 25.5 66.4 53.4 181.3
08/05 12:20 19.6 32 5.4 2.5 7 9 1016.6 0 12.6 19.9 26.0 67.5 54.7 186.0
08/05 12:10 19.5 33 5.54 2.8 9 11 1016.8 0 12.9 20.1 26.5 68.9 56.3 191.6
08/05 12:00 19.4 33 5.51 2.7 7 11 1017 0 12.8 20.1 26.4 68.7 56.1 190.7
08/05 11:50 18.9 32 5.18 1.9 11 13 1017.2 0 12.2 19.7 25.5 66.2 52.8 179.2
08/05 11:40 18.6 32 5.09 1.6 7 9 1017.4 0 12.0 19.7 25.3 65.7 52.1 176.4
08/05 11:30 18.7 34 5.44 2.5 11 19 1017.8 0 12.7 20.1 26.4 68.7 55.8 189.7
08/05 11:20 18.5 33 5.22 1.9 15 19 1017.9 0 12.3 19.9 25.8 66.9 53.6 181.7
08/05 11:10 18 33 5.07 1.5 17 20 1018 0 12.0 19.8 25.4 66.0 52.3 177.1
08/05 11:00 17.5 33 4.92 1.1 17 22 1018.3 0 11.7 19.7 25.1 65.1 50.9 172.4
08/05 10:50 17.7 36 5.43 2.5 19 20 1018.4 0 12.7 20.4 26.7 69.5 56.4 191.8
08/05 10:40 17.3 34 5.01 1.3 11 13 1018.5 0 11.9 19.9 25.5 66.1 52.1 176.3
08/05 10:30 16.6 35 4.94 1.1 19 28 1018.8 0 11.7 19.9 25.4 66.0 51.8 175.1
08/05 10:20 16.6 36 5.09 1.5 17 20 1018.7 0 12.0 20.1 25.9 67.4 53.4 181.0
08/05 10:10 16.3 36 4.99 1.2 22 28 1018.9 0 11.8 20.1 25.7 66.7 52.5 177.7
08/05 10:00 16 38 5.18 1.7 17 26 1019.2 0 12.3 20.4 26.5 68.7 54.9 185.9
08/05 09:50 15.5 37 4.89 0.9 20 24 1019.1 0 11.7 20.1 25.6 66.5 51.9 175.5
08/05 09:40 15.2 38 4.93 1 22 26 1019.3 0 11.8 20.3 25.9 67.1 52.6 177.8
08/05 09:30 14.8 38 4.81 0.6 19 28 1019.5 0 11.5 20.2 25.6 66.4 51.5 173.9
08/05 09:20 14.2 39 4.76 0.5 17 22 1019.4 0 11.4 20.2 25.6 66.4 51.3 173.2
08/05 09:10 13.7 40 4.74 0.4 22 26 1019.4 0 11.4 20.3 25.7 66.6 51.4 173.5
08/05 09:00 13.4 43 5 1.1 22 30 1019.6 0 12.0 20.8 26.7 69.3 54.6 184.6
08/05 08:50 13 42 4.76 0.4 24 26 1019.5 0 11.5 20.5 26.0 67.4 52.1 175.8
08/05 08:40 12.6 43 4.76 0.4 19 20 1019.5 0 11.5 20.6 26.1 67.7 52.3 176.6
08/05 08:30 12.2 45 4.86 0.6 20 28 1019.7 0 11.7 20.8 26.6 69.0 53.8 181.6
08/05 08:20 11.9 47 4.98 1 15 19 1019.8 0 12.0 21.1 27.1 70.4 55.4 187.3
08/05 08:10 11.3 48 4.9 0.7 17 19 1019.8 0 11.8 21.1 27.0 70.2 54.9 185.3
08/05 08:00 10.9 49 4.87 0.6 17 24 1020 0 11.8 21.1 27.1 70.3 54.8 185.0
08/05 07:50 10.5 52 5.04 1.1 17 20 1019.9 0 12.1 21.5 27.8 72.3 57.1 193.1
08/05 07:40 10 51 4.79 0.3 17 20 1020 0 11.6 21.2 27.1 70.3 54.4 183.7
08/05 07:30 9.6 54 4.95 0.8 17 24 1020 0 12.0 21.6 27.8 72.2 56.6 191.4
08/05 07:20 9.2 52 4.64 -0.1 19 22 1020 0 11.3 21.2 26.8 69.5 53.2 179.2
08/05 07:10 8.5 58 4.95 0.7 17 17 1019.9 0 12.0 21.8 28.2 73.2 57.4 194.0
08/05 07:00 7.3 65 5.14 1.2 13 19 1020 0 12.5 22.4 29.3 76.2 60.7 205.4
08/05 06:50 3.3 88 5.34 1.5 9 11 1019.9 0 13.0 23.7 31.6 82.4 66.6 225.4
08/05 06:40 2.7 88 5.13 0.9 11 13 1019.9 0 12.6 23.6 31.0 80.7 64.3 217.2
08/05 06:30 2.7 87 5.07 0.8 6 7 1020 0 12.5 23.5 30.7 80.1 63.5 214.4
08/05 06:20 3 82 4.88 0.2 4 6 1019.8 0 12.0 23.1 29.9 77.7 60.7 204.6
08/05 06:10 3.3 79 4.8 0 6 6 1019.7 0 11.9 22.9 29.4 76.5 59.4 200.2
08/05 06:00 3.6 82 5.08 0.8 11 13 1019.7 0 12.5 23.2 30.4 79.2 62.8 212.3
08/05 05:50 3.6 80 4.96 0.5 9 11 1019.5 0 12.2 23.0 29.9 77.9 61.2 206.7
08/05 05:40 3.6 81 5.02 0.7 11 13 1019.5 0 12.3 23.1 30.2 78.6 62.0 209.5
08/05 05:30 3.4 80 4.89 0.3 9 13 1019.5 0 12.1 23.0 29.7 77.4 60.5 204.0
08/05 05:20 4.6 70 4.64 -0.4 9 11 1019.4 0 11.5 22.3 28.3 73.6 56.3 189.6
08/05 05:10 2.3 90 5.11 0.8 11 13 1019.5 0 12.6 23.6 31.0 80.9 64.3 217.2
08/05 05:00 2.5 89 5.12 0.9 2 6 1019.5 0 12.6 23.6 31.0 80.8 64.3 217.2
08/05 04:50 2.6 89 5.16 1 6 6 1019.4 0 12.7 23.6 31.1 81.1 64.7 218.8
08/05 04:40 2.5 85 4.89 0.2 7 7 1019.4 0 12.1 23.2 30.1 78.3 61.2 206.3
08/05 04:30 2.6 83 4.81 0 0 6 1019.5 0 11.9 23.1 29.7 77.3 60.0 202.4
08/05 04:20 3.1 82 4.91 0.3 0 0 1019.2 0 12.1 23.1 29.9 77.9 61.0 205.7
08/05 04:10 3.3 85 5.16 1 0 0 1019.2 0 12.6 23.4 30.8 80.3 64.1 216.8
08/05 04:00 3 82 4.88 0.2 2 6 1019.3 0 12.0 23.1 29.8 77.6 60.6 204.6
08/05 03:50 3.1 81 4.85 0.2 7 7 1019.2 0 12.0 23.0 29.7 77.2 60.2 202.9
08/05 03:40 3.6 83 5.14 1 6 6 1019.1 0 12.6 23.3 30.6 79.8 63.6 215.0
08/05 03:30 3.6 83 5.14 1 4 9 1019.2 0 12.6 23.3 30.6 79.8 63.6 215.0
08/05 03:20 3.5 81 4.98 0.6 0 4 1019.1 0 12.2 23.1 30.0 78.2 61.6 207.8
08/05 03:10 3.5 77 4.74 -0.1 7 7 1019.1 0 11.7 22.7 29.1 75.6 58.4 196.8
08/05 03:00 3.6 76 4.71 -0.2 6 9 1019.1 0 11.7 22.6 28.9 75.2 57.9 195.2
08/05 02:50 4 74 4.71 -0.2 6 6 1018.8 0 11.6 22.5 28.8 74.8 57.6 194.1
08/05 02:40 4.1 73 4.68 -0.3 6 6 1018.9 0 11.6 22.4 28.6 74.4 57.2 192.5
08/05 02:30 4.2 74 4.77 0 4 7 1019 0 11.8 22.6 29.0 75.3 58.3 196.4
08/05 02:20 4.6 72 4.77 0 6 6 1018.9 0 11.8 22.5 28.8 74.9 58.0 195.4
08/05 02:10 4.9 69 4.66 -0.3 7 7 1018.8 0 11.5 22.2 28.3 73.5 56.3 189.7
08/05 02:00 5.6 67 4.74 0 9 13 1018.9 0 11.7 22.2 28.3 73.6 56.9 191.6
08/05 01:50 5.8 64 4.59 -0.5 7 7 1018.9 0 11.3 21.9 27.7 71.9 54.8 184.5
08/05 01:40 6 61 4.43 -0.9 7 9 1019 0 11.0 21.6 27.0 70.1 52.7 177.0
08/05 01:30 5.1 63 4.31 -1.3 9 13 1019 0 10.8 21.6 26.9 69.7 51.8 173.7
08/05 01:20 4.6 69 4.57 -0.6 9 9 1018.8 0 11.3 22.1 28.0 72.8 55.4 186.4
08/05 01:10 5.1 65 4.45 -0.9 11 13 1018.8 0 11.1 21.8 27.4 71.1 53.5 179.9
08/05 01:00 6.7 58 4.41 -1 0 7 1018.9 0 10.9 21.4 26.7 69.3 52.0 174.6
08/05 00:50 6.6 57 4.31 -1.3 0 0 1018.9 0 10.7 21.3 26.4 68.4 50.8 170.5
08/05 00:40 5.9 59 4.26 -1.5 0 0 1018.9 0 10.6 21.4 26.4 68.5 50.6 169.8
08/05 00:20 7.1 50 3.9 -2.6 4 6 1018.8 0 9.8 20.6 24.7 64.0 45.5 152.0
08/05 00:10 7.8 47 3.84 -2.8 6 7 1018.8 0 9.7 20.3 24.3 62.8 44.4 148.2
08/05 00:00 7.1 56 4.37 -1.1 0 0 1018.8 0 10.8 21.2 26.4 68.6 51.2 172.0
07/05 23:50 7.7 51 4.14 -1.8 0 0 1018.6 0 10.3 20.8 25.4 65.8 48.0 160.9
07/05 23:40 8.5 46 3.93 -2.4 2 4 1018.6 0 9.8 20.3 24.4 63.1 45.1 150.6
07/05 23:30 7.6 54 4.35 -1.1 15 17 1018.6 0 10.8 21.1 26.2 67.9 50.6 170.1
07/05 23:20 8.9 42 3.68 -3.3 15 17 1018.7 0 9.3 19.8 23.4 60.5 42.0 139.7
07/05 23:10 9.8 38 3.53 -3.8 11 11 1018.8 0 9.0 19.4 22.6 58.4 39.8 132.1
07/05 23:00 11.6 32 3.33 -4.5 15 24 1018.8 0 8.5 18.8 21.5 55.4 36.7 121.5
07/05 22:50 10.9 35 3.48 -3.9 19 20 1018.6 0 8.8 19.1 22.2 57.2 38.7 128.4
07/05 22:40 9.2 43 3.84 -2.7 15 17 1018.6 0 9.6 20.0 23.9 61.8 43.6 145.7
07/05 22:30 10.2 35 3.33 -4.6 7 9 1018.9 0 8.5 19.1 21.9 56.3 37.3 123.6
07/05 22:20 10.8 34 3.36 -4.4 7 9 1018.7 0 8.6 19.0 21.8 56.2 37.4 123.8
07/05 22:10 11.8 30 3.16 -5.2 9 11 1018.7 0 8.1 18.5 20.9 53.7 34.7 114.6
07/05 22:00 13 28 3.18 -5.1 17 20 1018.7 0 8.1 18.3 20.6 53.1 34.5 113.7
07/05 21:50 12.5 29 3.19 -5 15 17 1018.8 0 8.2 18.4 20.8 53.5 34.8 114.8
07/05 21:40 12.2 31 3.35 -4.4 15 15 1018.9 0 8.5 18.7 21.4 55.2 36.7 121.4
07/05 21:30 13.1 28 3.2 -5 17 20 1018.9 0 8.2 18.3 20.7 53.3 34.6 114.4
07/05 21:20 13.3 28 3.24 -4.8 17 19 1018.6 0 8.3 18.3 20.8 53.4 35.0 115.6
07/05 21:10 13.4 29 3.37 -4.2 15 17 1018.6 0 8.5 18.5 21.2 54.5 36.3 120.4
07/05 21:00 13.5 29 3.39 -4.2 15 19 1018.7 0 8.6 18.5 21.2 54.6 36.5 121.0
07/05 20:50 13.1 32 3.65 -3.2 13 15 1018.5 0 9.1 18.9 22.1 57.2 39.5 131.5
07/05 20:40 13.8 31 3.69 -3 15 19 1018.3 0 9.2 18.8 22.1 57.0 39.6 131.9
07/05 20:30 13.5 36 4.21 -1.3 15 19 1018.2 0 10.3 19.6 23.9 61.9 45.5 152.6
07/05 20:20 13.5 37 4.33 -0.9 17 19 1018 0 10.5 19.7 24.3 62.9 46.8 157.3
07/05 20:10 12.9 39 4.4 -0.7 17 19 1018 0 10.7 20.0 24.7 64.0 47.9 161.3
07/05 20:00 13.1 35 3.99 -2 13 15 1018.1 0 9.8 19.4 23.3 60.2 43.2 144.7
07/05 19:50 13.9 33 3.96 -2.1 13 13 1017.9 0 9.7 19.2 22.9 59.3 42.5 142.1

Last Refresh: 08-May-2026 12:08:18

Bureau of Meteorology